Stewart International Airport
KSWF : now visible

Airfield :











YOU CAN JOIN US ON...

 
LOGIN :

Register | Disclaimer

   EN    FR    IT 

 









Legend :    VFR   Marginal VFR   IFR   Intensive IFR   Very Intensive IFR
Visi :
Ceiling :
>= 8 km
>= 3000ft
5 to 8 km
1000 to 3000 ft
1500m to 5 km
500 to 1000 ft
800 to 1500m
200 to 500 ft
< 800m
< 200 ft
Symbols :   Thunderstorms  Fog  Heavy snow  Heavy precipitations  Wind > 20 kt







- Airport Elevation : 491 ft
- IATA code : SWF


KSWF - Stewart International

CURRENT METAR :
  • 222145Z VRB04KT 15SM SCT060 BKN070 19/13 A2999

EXPIRED METARs :
  • 222045Z 05005KT 10SM FEW030 OVC060 18/12 A2998
  • 221945Z 04005KT 10SM FEW030 OVC060 18/12 A2999

TAF KSWF
Valid from the 22 at 22:00 until the 24 at 00:00 UTC


222143Z 2222/2324 01010KT P6SM -SHRA FEW035 OVC050
FM222300 01007KT P6SM VCSH SCT025 BKN040
FM230400 34008KT P6SM SCT025 SCT040 BKN070
FM231000 VRB04KT P6SM FEW025 SCT035
FM231800 21006KT P6SM SCT035 SCT250 AMD NOT SKED
KZBW FIR / North America



MET'MAP, your aeronautical weather chart ! - Copyright ORBIFLY December 2007 - Disclaimer

ORBIFLY MET'MAP TEAM :

Programming & Development : Alexandra Zaïnal
Concept & Development : Baudouin d'Aumeries
Co-Development & Prog : Marc-Olivier Méhu
Technical & hardware support : Manuel Goepfert

Contact : metmap@orbifly.com




SOURCES & CREDITS :

   NOAA       Earth
Advisory